Řízení letového provozu České republiky
Letiste: LKCV Aktualizace: 27.05.2018 00:01:07  UTC
 METAR LKCV 27.05. 00:00 ...
METAR LKCV 270000Z 15003KT CAVOK 16/11 Q1021 NOSIG RMK BLU BLU=
 TAF LKCV 26.05. 23:00 ...
TAF LKCV 262300Z 2700/2800 VRB02KT CAVOK      BECMG 2708/2710 08006KT      TEMPO 2710/2714 08012G24KT      PROB30 TEMPO 2710/2716 SCT045TCU=